createdAt,value
2019-04-25T00:01:22.447Z,94.30
2019-04-25T00:03:53.348Z,94.50
2019-04-25T00:06:24.348Z,94.50
2019-04-25T00:08:55.338Z,94.40
2019-04-25T00:11:25.361Z,94.40
2019-04-25T00:13:55.386Z,94.50
2019-04-25T00:16:27.135Z,94.50
2019-04-25T00:18:57.368Z,94.80
2019-04-25T00:21:46.707Z,94.80
2019-04-25T00:24:26.746Z,94.60
2019-04-25T00:26:56.954Z,94.50
2019-04-25T00:29:27.017Z,94.60
2019-04-25T00:31:57.312Z,94.70
2019-04-25T00:34:27.461Z,94.60
2019-04-25T00:36:57.514Z,94.50
2019-04-25T00:39:27.803Z,94.50
2019-04-25T00:41:57.878Z,94.60
2019-04-25T00:44:27.953Z,94.60
2019-04-25T00:46:58.041Z,94.50
2019-04-25T00:49:28.274Z,94.70
2019-04-25T00:51:58.376Z,94.70
2019-04-25T00:54:28.506Z,95.10
2019-04-25T00:56:58.894Z,94.70
2019-04-25T00:59:45.436Z,95.00
2019-04-25T01:02:31.417Z,95.00
2019-04-25T01:05:01.981Z,94.80
2019-04-25T01:07:34.401Z,94.90
2019-04-25T01:10:05.273Z,94.70
2019-04-25T01:12:35.342Z,94.90
2019-04-25T01:15:06.650Z,95.00
2019-04-25T01:17:36.651Z,94.80
2019-04-25T01:20:08.211Z,94.80
2019-04-25T01:22:38.331Z,94.90
2019-04-25T01:25:10.526Z,94.80
2019-04-25T01:27:40.511Z,94.80
2019-04-25T01:30:11.217Z,94.70
2019-04-25T01:32:41.226Z,95.00
2019-04-25T01:35:29.250Z,94.90
2019-04-25T01:38:15.246Z,94.90
2019-04-25T01:41:07.614Z,95.00
2019-04-25T01:43:44.204Z,95.20
2019-04-25T01:46:14.868Z,95.30
2019-04-25T01:48:46.219Z,95.40
2019-04-25T01:51:16.527Z,95.20
2019-04-25T01:53:46.590Z,95.20
2019-04-25T01:56:16.718Z,95.30
2019-04-25T01:58:46.779Z,95.30
2019-04-25T02:01:17.034Z,95.40
2019-04-25T02:03:47.090Z,95.40
2019-04-25T02:06:17.153Z,95.50
2019-04-25T02:08:47.271Z,95.90
2019-04-25T02:11:35.302Z,95.50
2019-04-25T02:14:06.632Z,95.30
2019-04-25T02:16:37.743Z,95.10
2019-04-25T02:19:07.850Z,95.10
2019-04-25T02:21:38.010Z,95.30
2019-04-25T02:24:08.208Z,95.20
2019-04-25T02:26:38.348Z,95.30
2019-04-25T02:29:08.707Z,95.10
2019-04-25T02:31:38.850Z,95.30
2019-04-25T02:34:09.001Z,95.10
2019-04-25T02:36:39.139Z,95.30
2019-04-25T02:39:17.871Z,94.90
2019-04-25T02:41:48.108Z,94.90
2019-04-25T02:44:18.118Z,95.10
2019-04-25T02:47:07.925Z,95.10
2019-04-25T02:50:00.795Z,95.30
2019-04-25T02:52:35.460Z,95.10
2019-04-25T02:55:28.108Z,95.10
2019-04-25T02:57:44.736Z,95.00
2019-04-25T03:00:27.479Z,95.00
2019-04-25T03:02:59.144Z,94.90
2019-04-25T03:05:30.246Z,95.00
2019-04-25T03:08:01.619Z,94.90
2019-04-25T03:10:34.764Z,95.10
2019-04-25T03:13:07.094Z,95.00
2019-04-25T03:15:36.477Z,95.00
2019-04-25T03:18:11.612Z,95.10
2019-04-25T03:20:45.337Z,95.20
2019-04-25T03:23:34.983Z,95.20
2019-04-25T03:26:06.243Z,95.30
2019-04-25T03:28:37.289Z,95.30
2019-04-25T03:31:13.268Z,95.40
2019-04-25T03:33:39.091Z,95.50
2019-04-25T03:36:09.387Z,95.40
2019-04-25T03:38:39.697Z,95.20
2019-04-25T03:41:10.755Z,95.30
2019-04-25T03:43:41.869Z,95.30
2019-04-25T03:46:14.113Z,95.10
2019-04-25T03:48:44.188Z,95.20
2019-04-25T03:51:15.668Z,95.40
2019-04-25T03:53:45.910Z,95.20
2019-04-25T03:56:16.158Z,95.10
2019-04-25T03:58:46.136Z,95.10
2019-04-25T04:01:16.119Z,95.10
2019-04-25T04:03:46.145Z,94.90
2019-04-25T04:06:16.180Z,95.00
2019-04-25T04:08:46.201Z,94.90
2019-04-25T04:11:16.258Z,94.80
2019-04-25T04:13:46.586Z,94.80
2019-04-25T04:16:19.266Z,94.90
2019-04-25T04:18:51.107Z,94.90
2019-04-25T04:21:40.171Z,94.80
2019-04-25T04:24:23.882Z,94.70
2019-04-25T04:27:15.558Z,94.70
2019-04-25T04:29:46.040Z,94.90
2019-04-25T04:32:17.331Z,94.90
2019-04-25T04:34:47.617Z,94.90
2019-04-25T04:37:17.635Z,94.70
2019-04-25T04:39:47.705Z,94.60
2019-04-25T04:42:17.956Z,94.70
2019-04-25T04:44:48.054Z,94.40
2019-04-25T04:47:18.607Z,94.20
2019-04-25T04:49:49.012Z,94.20
2019-04-25T04:52:19.282Z,94.10
2019-04-25T04:54:49.322Z,94.10
2019-04-25T04:57:29.069Z,94.10
2019-04-25T04:59:51.099Z,94.10
2019-04-25T05:02:43.322Z,93.80
2019-04-25T05:05:23.533Z,93.70
2019-04-25T05:08:00.699Z,94.10
2019-04-25T05:10:30.730Z,93.80
2019-04-25T05:13:00.821Z,93.90
2019-04-25T05:15:30.937Z,93.70
2019-04-25T05:18:00.979Z,93.60
2019-04-25T05:20:31.013Z,93.60
2019-04-25T05:23:01.001Z,93.50
2019-04-25T05:25:31.138Z,93.50
2019-04-25T05:28:03.563Z,93.30
2019-04-25T05:30:39.106Z,93.30
2019-04-25T05:33:09.139Z,93.30
2019-04-25T05:35:39.987Z,93.10
2019-04-25T05:38:10.042Z,93.10
2019-04-25T05:40:59.853Z,93.00
2019-04-25T05:43:29.961Z,93.00
2019-04-25T05:46:00.125Z,92.80
2019-04-25T05:48:30.165Z,92.80
2019-04-25T05:51:01.282Z,92.00
2019-04-25T05:53:31.376Z,90.70
2019-04-25T05:56:01.541Z,89.50
2019-04-25T05:58:33.611Z,88.20
2019-04-25T06:01:04.155Z,87.40
2019-04-25T06:03:34.166Z,87.50
2019-04-25T06:06:04.218Z,86.40
2019-04-25T06:08:37.585Z,85.10
2019-04-25T06:11:41.774Z,85.50
2019-04-25T06:14:13.595Z,84.50
2019-04-25T06:16:44.128Z,86.00
2019-04-25T06:19:34.229Z,86.30
2019-04-25T06:22:05.543Z,86.60
2019-04-25T06:24:41.298Z,86.60
2019-04-25T06:27:30.394Z,86.30
2019-04-25T06:30:14.378Z,86.60
2019-04-25T06:32:44.880Z,86.70
2019-04-25T06:35:14.985Z,86.70
2019-04-25T06:37:45.231Z,86.90
2019-04-25T06:40:16.042Z,86.00
2019-04-25T06:42:46.798Z,85.90
2019-04-25T06:45:36.891Z,85.60
2019-04-25T06:48:14.036Z,85.40
2019-04-25T06:50:45.847Z,83.50
2019-04-25T06:53:16.033Z,84.20
2019-04-25T06:55:46.055Z,83.20
2019-04-25T06:58:16.137Z,82.80
2019-04-25T07:00:58.055Z,82.00
2019-04-25T07:03:18.068Z,82.00
2019-04-25T07:05:48.117Z,81.70
2019-04-25T07:08:18.104Z,80.30
2019-04-25T07:10:48.218Z,77.00
2019-04-25T07:13:18.330Z,72.50
2019-04-25T07:15:48.326Z,62.80
2019-04-25T07:18:18.599Z,53.70
2019-04-25T07:20:48.633Z,46.10
2019-04-25T07:23:19.833Z,42.20
2019-04-25T07:25:56.196Z,38.20
2019-04-25T07:28:45.261Z,34.20
2019-04-25T07:31:54.030Z,30.00
2019-04-25T07:34:26.020Z,28.30
2019-04-25T07:36:56.333Z,27.30
2019-04-25T07:39:27.421Z,26.20
2019-04-25T07:41:57.592Z,25.50
2019-04-25T07:44:37.962Z,25.80
2019-04-25T07:46:59.418Z,26.80
2019-04-25T07:49:30.495Z,26.30
2019-04-25T07:52:00.882Z,25.30
2019-04-25T07:54:30.969Z,24.70
2019-04-25T07:57:01.506Z,23.90
2019-04-25T07:59:34.818Z,23.50
2019-04-25T08:02:04.485Z,23.50
2019-04-25T08:04:36.770Z,24.10
2019-04-25T08:07:06.564Z,23.90
2019-04-25T08:09:37.967Z,23.00
2019-04-25T08:12:08.118Z,23.10
2019-04-25T08:14:59.097Z,23.80
2019-04-25T08:17:46.984Z,23.90
2019-04-25T08:20:18.779Z,24.90
2019-04-25T08:22:56.634Z,24.30
2019-04-25T08:25:23.486Z,25.10
2019-04-25T08:27:55.118Z,25.30
2019-04-25T08:30:25.394Z,28.50
2019-04-25T08:32:55.519Z,28.40
2019-04-25T08:35:25.694Z,26.50
2019-04-25T08:37:55.742Z,25.70
2019-04-25T08:40:27.434Z,24.90
2019-04-25T08:43:09.285Z,23.60
2019-04-25T08:45:39.748Z,24.30
2019-04-25T08:48:09.918Z,26.70
2019-04-25T08:51:05.253Z,27.50
2019-04-25T08:53:45.082Z,28.00
2019-04-25T08:56:19.625Z,28.20
2019-04-25T08:59:34.496Z,29.00
2019-04-25T09:02:05.827Z,28.30
2019-04-25T09:05:01.058Z,26.70
2019-04-25T09:07:32.575Z,25.60
2019-04-25T09:10:03.553Z,25.40
2019-04-25T09:12:37.746Z,25.60
2019-04-25T09:15:08.016Z,26.60
2019-04-25T09:17:38.080Z,27.70
2019-04-25T09:20:09.384Z,27.80
2019-04-25T09:22:39.927Z,29.40
2019-04-25T09:25:10.345Z,29.70
2019-04-25T09:27:40.923Z,30.50
2019-04-25T09:30:14.340Z,31.70
2019-04-25T09:32:45.735Z,33.20
2019-04-25T09:35:15.797Z,32.00
2019-04-25T09:37:46.237Z,31.40
2019-04-25T09:40:17.071Z,30.60
2019-04-25T09:42:47.734Z,31.20
2019-04-25T09:45:29.273Z,30.80
2019-04-25T09:48:05.597Z,31.20
2019-04-25T09:50:43.874Z,32.10
2019-04-25T09:53:21.811Z,31.40
2019-04-25T09:56:04.323Z,31.70
2019-04-25T09:58:42.124Z,33.80
2019-04-25T10:01:14.098Z,34.20
2019-04-25T10:03:45.655Z,33.10
2019-04-25T10:06:18.310Z,32.50
2019-04-25T10:08:49.350Z,33.30
2019-04-25T10:11:19.349Z,34.00
2019-04-25T10:14:11.603Z,32.80
2019-04-25T10:16:42.772Z,32.60
2019-04-25T10:19:13.320Z,32.30
2019-04-25T10:21:43.597Z,31.80
2019-04-25T10:24:13.650Z,32.60
2019-04-25T10:26:45.100Z,34.20
2019-04-25T10:29:15.257Z,33.50
2019-04-25T10:31:45.481Z,33.60
2019-04-25T10:34:15.472Z,34.70
2019-04-25T10:36:45.500Z,32.80
2019-04-25T10:39:15.628Z,33.40
2019-04-25T10:41:46.744Z,32.90
2019-04-25T10:44:17.374Z,31.90
2019-04-25T10:46:48.258Z,32.40
2019-04-25T10:49:18.581Z,32.80
2019-04-25T10:51:49.789Z,33.20
2019-04-25T10:54:21.122Z,32.10
2019-04-25T10:56:52.024Z,31.50
2019-04-25T10:59:23.563Z,31.40
2019-04-25T11:01:55.128Z,32.50
2019-04-25T11:04:31.660Z,32.10
2019-04-25T11:07:03.607Z,32.20
2019-04-25T11:09:34.273Z,32.80
2019-04-25T11:12:07.576Z,33.90
2019-04-25T11:14:37.740Z,33.20
2019-04-25T11:17:08.135Z,31.60
2019-04-25T11:19:38.218Z,32.10
2019-04-25T11:22:11.297Z,32.20
2019-04-25T11:24:41.643Z,32.60
2019-04-25T11:27:13.540Z,32.50
2019-04-25T11:29:45.040Z,32.30
2019-04-25T11:32:16.423Z,32.00
2019-04-25T11:34:47.318Z,31.80
2019-04-25T11:37:18.312Z,31.50
2019-04-25T11:39:56.124Z,31.50
2019-04-25T11:42:26.467Z,32.40
2019-04-25T11:44:56.450Z,32.70
2019-04-25T11:47:26.701Z,33.00
2019-04-25T11:49:56.682Z,32.50
2019-04-25T11:52:30.266Z,31.70
2019-04-25T11:54:59.622Z,31.40
2019-04-25T11:57:29.686Z,31.20
2019-04-25T11:59:59.737Z,31.50
2019-04-25T12:02:29.905Z,30.30
2019-04-25T12:04:59.889Z,30.00
2019-04-25T12:07:31.145Z,29.50
2019-04-25T12:10:01.188Z,29.40
2019-04-25T12:12:31.658Z,29.60
2019-04-25T12:15:01.970Z,29.40
2019-04-25T12:17:32.765Z,29.00
2019-04-25T12:20:03.910Z,29.00
2019-04-25T12:22:34.384Z,30.00
2019-04-25T12:25:04.915Z,29.30
2019-04-25T12:27:34.931Z,28.80
2019-04-25T12:30:06.010Z,28.90
2019-04-25T12:32:36.605Z,29.40
2019-04-25T12:35:07.032Z,29.90
2019-04-25T12:37:37.329Z,29.30
2019-04-25T12:40:08.822Z,29.40
2019-04-25T12:42:38.849Z,29.70
2019-04-25T12:45:25.049Z,30.00
2019-04-25T12:47:57.988Z,29.10
2019-04-25T12:50:26.910Z,29.10
2019-04-25T12:52:58.039Z,29.00
2019-04-25T12:55:28.145Z,28.70
2019-04-25T12:57:58.206Z,28.40
2019-04-25T13:00:29.937Z,29.50
2019-04-25T13:02:59.955Z,29.10
2019-04-25T13:05:29.973Z,28.80
2019-04-25T13:08:01.063Z,28.60
2019-04-25T13:10:33.269Z,29.10
2019-04-25T13:13:03.950Z,28.80
2019-04-25T13:15:34.769Z,29.30
2019-04-25T13:18:04.881Z,29.10
2019-04-25T13:20:34.859Z,29.40
2019-04-25T13:23:06.009Z,28.80
2019-04-25T13:25:36.220Z,27.50
2019-04-25T13:28:44.146Z,27.40
2019-04-25T13:31:33.285Z,27.50
2019-04-25T13:34:07.565Z,27.50
2019-04-25T13:36:58.063Z,27.00
2019-04-25T13:39:28.319Z,26.40
2019-04-25T13:41:59.770Z,27.00
2019-04-25T13:44:31.066Z,26.70
2019-04-25T13:47:01.057Z,26.90
2019-04-25T13:49:32.348Z,26.60
2019-04-25T13:52:02.660Z,26.90
2019-04-25T13:54:33.832Z,26.30
2019-04-25T13:57:04.579Z,26.40
2019-04-25T13:59:34.637Z,26.30
2019-04-25T14:02:06.717Z,26.60
2019-04-25T14:04:36.831Z,26.90
2019-04-25T14:07:08.435Z,26.90
2019-04-25T14:09:38.699Z,26.80
2019-04-25T14:12:09.419Z,26.50
2019-04-25T14:14:39.535Z,26.60
2019-04-25T14:17:21.655Z,26.30
2019-04-25T14:20:16.980Z,25.90
2019-04-25T14:22:47.038Z,26.30
2019-04-25T14:25:18.615Z,26.60
2019-04-25T14:27:48.694Z,27.00
2019-04-25T14:30:20.964Z,26.70
2019-04-25T14:32:53.550Z,26.80
2019-04-25T14:35:24.164Z,26.90
2019-04-25T14:37:55.535Z,26.60
2019-04-25T14:40:26.957Z,27.20
2019-04-25T14:42:57.080Z,27.30
2019-04-25T14:45:27.221Z,27.20
2019-04-25T14:47:57.304Z,26.90
2019-04-25T14:50:27.310Z,27.20
2019-04-25T14:52:57.472Z,26.50
2019-04-25T14:55:45.399Z,27.10
2019-04-25T14:58:17.357Z,27.20
2019-04-25T15:00:49.182Z,27.10
2019-04-25T15:03:19.179Z,26.50
2019-04-25T15:05:49.945Z,26.80
2019-04-25T15:08:19.943Z,26.70
2019-04-25T15:10:50.312Z,27.00
2019-04-25T15:13:21.038Z,26.70
2019-04-25T15:15:51.222Z,26.20
2019-04-25T15:18:21.299Z,26.00
2019-04-25T15:20:51.379Z,25.90
2019-04-25T15:23:21.887Z,26.40
2019-04-25T15:25:51.969Z,26.40
2019-04-25T15:28:22.019Z,25.70
2019-04-25T15:30:52.107Z,25.20
2019-04-25T15:33:22.208Z,25.10
2019-04-25T15:36:17.370Z,26.00
2019-04-25T15:39:15.596Z,24.70
2019-04-25T15:42:06.408Z,23.90
2019-04-25T15:44:49.293Z,23.90
2019-04-25T15:47:21.909Z,23.60
2019-04-25T15:49:51.973Z,23.50
2019-04-25T15:52:22.047Z,23.10
2019-04-25T15:54:52.078Z,23.20
2019-04-25T15:57:22.185Z,23.20
2019-04-25T15:59:52.298Z,23.90
2019-04-25T16:02:22.480Z,23.90
2019-04-25T16:04:52.571Z,24.20
2019-04-25T16:07:22.914Z,24.50
2019-04-25T16:09:53.048Z,24.50
2019-04-25T16:12:23.482Z,24.60
2019-04-25T16:14:53.599Z,24.80
2019-04-25T16:17:23.782Z,24.90
2019-04-25T16:19:53.912Z,25.20
2019-04-25T16:22:25.067Z,25.20
2019-04-25T16:24:55.160Z,25.40
2019-04-25T16:27:25.367Z,25.40
2019-04-25T16:29:55.417Z,25.70
2019-04-25T16:32:27.015Z,25.70
2019-04-25T16:34:57.083Z,25.50
2019-04-25T16:37:29.134Z,25.70
2019-04-25T16:39:59.378Z,25.80
2019-04-25T16:42:30.320Z,25.40
2019-04-25T16:45:00.691Z,25.40
2019-04-25T16:47:31.576Z,25.50
2019-04-25T16:50:01.616Z,25.60
2019-04-25T16:52:33.743Z,25.50
2019-04-25T16:55:05.182Z,25.50
2019-04-25T16:57:35.366Z,25.80
2019-04-25T17:00:06.843Z,25.80
2019-04-25T17:02:40.855Z,25.90
2019-04-25T17:05:11.054Z,25.80
2019-04-25T17:07:41.131Z,25.90
2019-04-25T17:10:12.338Z,26.00
2019-04-25T17:12:42.616Z,25.60
2019-04-25T17:15:24.504Z,25.90
2019-04-25T17:18:08.795Z,25.90
2019-04-25T17:20:43.440Z,26.00
2019-04-25T17:23:13.745Z,26.20
2019-04-25T17:25:44.034Z,26.60
2019-04-25T17:28:15.847Z,27.00
2019-04-25T17:30:48.039Z,27.00
2019-04-25T17:33:29.260Z,27.50
2019-04-25T17:36:13.093Z,27.90
2019-04-25T17:38:49.222Z,28.40
2019-04-25T17:41:21.516Z,28.70
2019-04-25T17:43:51.716Z,28.80
2019-04-25T17:46:23.461Z,28.80
2019-04-25T17:48:54.559Z,29.50
2019-04-25T17:51:24.652Z,29.00
2019-04-25T17:53:54.722Z,29.00
2019-04-25T17:56:24.848Z,29.70
2019-04-25T17:58:54.879Z,30.00
2019-04-25T18:01:25.008Z,30.50
2019-04-25T18:03:55.180Z,34.90
2019-04-25T18:06:25.308Z,38.40
2019-04-25T18:08:55.314Z,41.40
2019-04-25T18:11:25.517Z,43.00
2019-04-25T18:13:55.605Z,45.00
2019-04-25T18:16:31.143Z,45.50
2019-04-25T18:19:17.334Z,46.50
2019-04-25T18:21:47.525Z,47.50
2019-04-25T18:24:35.367Z,48.40
2019-04-25T18:27:30.746Z,49.20
2019-04-25T18:30:00.910Z,50.00
2019-04-25T18:32:34.748Z,50.50
2019-04-25T18:35:11.107Z,51.00
2019-04-25T18:38:03.371Z,51.70
2019-04-25T18:40:51.426Z,52.20
2019-04-25T18:43:27.401Z,52.50
2019-04-25T18:46:01.926Z,52.60
2019-04-25T18:48:32.167Z,52.70
2019-04-25T18:51:02.175Z,52.60
2019-04-25T18:54:09.767Z,52.80
2019-04-25T18:57:13.996Z,53.10
2019-04-25T19:00:02.040Z,53.10
2019-04-25T19:02:52.658Z,52.40
2019-04-25T19:05:42.786Z,52.00
2019-04-25T19:08:13.067Z,51.50
2019-04-25T19:10:43.097Z,51.80
2019-04-25T19:13:13.335Z,51.70
2019-04-25T19:15:43.565Z,52.50
2019-04-25T19:18:13.579Z,52.80
2019-04-25T19:20:43.960Z,53.10
2019-04-25T19:23:14.109Z,53.20
2019-04-25T19:25:44.393Z,53.20
2019-04-25T19:28:14.483Z,53.30
2019-04-25T19:30:45.081Z,53.30
2019-04-25T19:33:15.277Z,53.20
2019-04-25T19:35:45.725Z,53.30
2019-04-25T19:38:15.847Z,53.50
2019-04-25T19:40:50.666Z,54.40
2019-04-25T19:43:33.955Z,53.90
2019-04-25T19:46:04.028Z,53.90
2019-04-25T19:48:34.143Z,53.90
2019-04-25T19:51:04.160Z,54.00
2019-04-25T19:53:34.209Z,54.20
2019-04-25T19:56:04.211Z,54.40
2019-04-25T19:58:34.227Z,54.70
2019-04-25T20:01:04.308Z,54.90
2019-04-25T20:03:56.766Z,55.10
2019-04-25T20:06:43.417Z,55.40
2019-04-25T20:09:35.707Z,56.40
2019-04-25T20:12:05.779Z,56.20
2019-04-25T20:14:35.829Z,56.60
2019-04-25T20:17:05.907Z,56.70
2019-04-25T20:19:35.931Z,56.50
2019-04-25T20:22:05.928Z,56.40
2019-04-25T20:24:37.050Z,56.30
2019-04-25T20:27:07.159Z,56.30
2019-04-25T20:29:37.261Z,56.30
2019-04-25T20:32:07.335Z,56.30
2019-04-25T20:34:37.400Z,56.40
2019-04-25T20:37:08.491Z,56.60
2019-04-25T20:39:38.643Z,56.80
2019-04-25T20:42:08.679Z,57.00
2019-04-25T20:44:38.879Z,57.10
2019-04-25T20:47:08.907Z,57.20
2019-04-25T20:49:39.043Z,57.40
2019-04-25T20:52:09.164Z,57.40
2019-04-25T20:54:39.222Z,57.40
2019-04-25T20:57:09.254Z,57.60
2019-04-25T20:59:39.315Z,57.90
2019-04-25T21:02:09.599Z,58.00
2019-04-25T21:04:40.257Z,58.10
2019-04-25T21:07:10.988Z,58.20
2019-04-25T21:09:41.141Z,58.30
2019-04-25T21:12:11.281Z,58.60
2019-04-25T21:15:15.637Z,58.80
2019-04-25T21:18:08.884Z,58.90
2019-04-25T21:20:38.996Z,59.20
2019-04-25T21:23:09.225Z,59.30
2019-04-25T21:25:39.330Z,59.50
2019-04-25T21:28:09.424Z,59.80
2019-04-25T21:30:39.581Z,59.90
2019-04-25T21:33:10.374Z,60.20
2019-04-25T21:35:40.928Z,60.50
2019-04-25T21:38:11.016Z,60.80
2019-04-25T21:41:15.506Z,60.90
2019-04-25T21:43:50.043Z,61.10
2019-04-25T21:46:20.367Z,61.30
2019-04-25T21:48:50.686Z,61.60
2019-04-25T21:51:33.247Z,61.70
2019-04-25T21:54:03.777Z,61.80
2019-04-25T21:56:34.280Z,61.50
2019-04-25T21:59:05.478Z,61.40
2019-04-25T22:01:38.875Z,61.50
2019-04-25T22:04:08.959Z,61.90
2019-04-25T22:06:39.679Z,62.40
2019-04-25T22:09:15.755Z,62.20
2019-04-25T22:11:46.780Z,62.30
2019-04-25T22:14:17.772Z,62.70
2019-04-25T22:16:48.308Z,63.10
2019-04-25T22:19:18.946Z,63.60
2019-04-25T22:21:49.530Z,64.10
2019-04-25T22:24:19.619Z,64.80
2019-04-25T22:26:51.755Z,64.60
2019-04-25T22:29:22.544Z,65.00
2019-04-25T22:32:03.521Z,65.60
2019-04-25T22:34:52.197Z,66.20
2019-04-25T22:37:17.501Z,66.90
2019-04-25T22:39:48.032Z,67.50
2019-04-25T22:42:20.090Z,67.60
2019-04-25T22:44:50.224Z,67.80
2019-04-25T22:47:20.394Z,68.10
2019-04-25T22:49:50.484Z,68.40
2019-04-25T22:52:20.716Z,68.90
2019-04-25T22:54:50.800Z,69.30
2019-04-25T22:57:21.114Z,69.90
2019-04-25T22:59:51.184Z,70.10
2019-04-25T23:02:28.113Z,70.50
2019-04-25T23:05:16.527Z,71.00
2019-04-25T23:07:47.703Z,71.20
2019-04-25T23:10:18.056Z,71.40
2019-04-25T23:12:48.100Z,71.70
2019-04-25T23:15:18.177Z,72.30
2019-04-25T23:17:48.551Z,72.80
2019-04-25T23:20:19.023Z,73.50
2019-04-25T23:22:49.086Z,73.80
2019-04-25T23:25:23.326Z,74.10
2019-04-25T23:28:05.344Z,74.30
2019-04-25T23:30:55.507Z,74.30
2019-04-25T23:33:25.600Z,74.30
2019-04-25T23:35:55.883Z,74.70
2019-04-25T23:38:25.910Z,74.70
2019-04-25T23:40:55.902Z,75.00
2019-04-25T23:43:26.295Z,75.20
2019-04-25T23:45:56.322Z,75.30
2019-04-25T23:48:26.711Z,75.50
2019-04-25T23:50:56.729Z,75.50
2019-04-25T23:53:26.806Z,75.90
2019-04-25T23:55:56.998Z,75.90
2019-04-25T23:58:27.022Z,76.30
